createdAt,value
2018-05-10T00:01:54.281Z,99627.98
2018-05-10T00:04:21.772Z,99620.58
2018-05-10T00:06:49.281Z,99612.22
2018-05-10T00:09:16.777Z,99611.17
2018-05-10T00:11:44.250Z,99609.55
2018-05-10T00:14:11.744Z,99607.29
2018-05-10T00:16:39.240Z,99606.41
2018-05-10T00:19:06.713Z,99609.07
2018-05-10T00:21:34.201Z,99609.20
2018-05-10T00:24:01.699Z,99610.50
2018-05-10T00:26:29.168Z,99622.01
2018-05-10T00:28:56.644Z,99615.41
2018-05-10T00:31:24.136Z,99606.48
2018-05-10T00:33:51.651Z,99600.48
2018-05-10T00:36:19.181Z,99600.00
2018-05-10T00:38:46.648Z,99603.44
2018-05-10T00:41:14.162Z,99606.83
2018-05-10T00:43:41.667Z,99609.12
2018-05-10T00:46:09.158Z,99611.25
2018-05-10T00:48:36.656Z,99607.25
2018-05-10T00:51:04.179Z,99601.74
2018-05-10T00:53:31.768Z,99611.48
2018-05-10T00:55:59.242Z,99600.52
2018-05-10T00:58:26.788Z,99596.31
2018-05-10T01:00:54.281Z,99593.28
2018-05-10T01:03:21.753Z,99586.23
2018-05-10T01:05:49.240Z,99580.22
2018-05-10T01:08:16.736Z,99584.30
2018-05-10T01:10:44.250Z,99585.95
2018-05-10T01:13:11.754Z,99595.24
2018-05-10T01:15:39.247Z,99593.75
2018-05-10T01:18:06.733Z,99590.03
2018-05-10T01:20:34.254Z,99591.59
2018-05-10T01:23:01.774Z,99575.14
2018-05-10T01:25:29.272Z,99589.03
2018-05-10T01:27:56.792Z,99583.67
2018-05-10T01:30:24.307Z,99584.78
2018-05-10T01:32:51.813Z,99585.47
2018-05-10T01:35:30.973Z,99572.81
2018-05-10T01:37:58.475Z,99574.58
2018-05-10T01:40:25.961Z,99574.45
2018-05-10T01:42:53.472Z,99572.55
2018-05-10T01:45:20.957Z,99573.39
2018-05-10T01:47:48.434Z,99577.08
2018-05-10T01:50:15.975Z,99577.77
2018-05-10T01:52:43.474Z,99579.31
2018-05-10T01:55:10.995Z,99578.55
2018-05-10T01:57:38.482Z,99577.23
2018-05-10T02:00:06.005Z,99572.94
2018-05-10T02:02:33.523Z,99564.80
2018-05-10T02:05:01.004Z,99564.15
2018-05-10T02:07:28.517Z,99565.05
2018-05-10T02:09:56.038Z,99566.07
2018-05-10T02:12:23.528Z,99566.27
2018-05-10T02:14:51.084Z,99569.78
2018-05-10T02:17:18.589Z,99571.06
2018-05-10T02:19:46.097Z,99568.56
2018-05-10T02:22:13.632Z,99567.38
2018-05-10T02:24:41.140Z,99571.67
2018-05-10T02:27:08.637Z,99571.06
2018-05-10T02:29:36.228Z,99570.23
2018-05-10T02:32:03.680Z,99571.45
2018-05-10T02:34:31.198Z,99573.83
2018-05-10T02:36:58.706Z,99573.78
2018-05-10T02:39:26.237Z,99568.23
2018-05-10T02:41:53.740Z,99570.28
2018-05-10T02:44:21.262Z,99569.64
2018-05-10T02:46:48.741Z,99575.56
2018-05-10T02:49:16.259Z,99574.25
2018-05-10T02:51:43.761Z,99572.73
2018-05-10T02:54:11.263Z,99575.64
2018-05-10T02:56:38.792Z,99571.23
2018-05-10T02:59:06.310Z,99567.78
2018-05-10T03:01:33.868Z,99574.23
2018-05-10T03:04:01.335Z,99571.98
2018-05-10T03:06:28.819Z,99560.79
2018-05-10T03:08:56.353Z,99561.18
2018-05-10T03:11:23.962Z,99558.75
2018-05-10T03:13:51.448Z,99556.44
2018-05-10T03:16:18.937Z,99559.55
2018-05-10T03:18:46.431Z,99558.67
2018-05-10T03:21:13.911Z,99551.50
2018-05-10T03:23:41.399Z,99558.34
2018-05-10T03:26:08.884Z,99561.39
2018-05-10T03:28:36.494Z,99559.81
2018-05-10T03:31:03.977Z,99555.02
2018-05-10T03:33:31.485Z,99549.91
2018-05-10T03:35:58.993Z,99543.77
2018-05-10T03:38:26.484Z,99548.39
2018-05-10T03:40:54.053Z,99542.81
2018-05-10T03:43:21.628Z,99550.74
2018-05-10T03:45:49.138Z,99551.59
2018-05-10T03:48:16.649Z,99549.60
2018-05-10T03:50:44.192Z,99547.48
2018-05-10T03:53:11.691Z,99544.52
2018-05-10T03:55:39.201Z,99550.55
2018-05-10T03:58:06.723Z,99553.31
2018-05-10T04:00:34.242Z,99558.48
2018-05-10T04:06:29.243Z,99560.27
2018-05-10T04:09:08.458Z,99568.37
2018-05-10T04:11:35.957Z,99566.86
2018-05-10T04:14:03.449Z,99568.66
2018-05-10T04:16:30.969Z,99575.44
2018-05-10T04:18:58.481Z,99567.56
2018-05-10T04:21:25.973Z,99570.17
2018-05-10T04:23:53.467Z,99577.99
2018-05-10T04:26:20.969Z,99567.33
2018-05-10T04:28:48.460Z,99573.77
2018-05-10T04:31:15.987Z,99573.58
2018-05-10T04:33:43.492Z,99573.99
2018-05-10T04:36:11.335Z,99577.44
2018-05-10T04:38:38.879Z,99578.75
2018-05-10T04:41:06.847Z,99576.02
2018-05-10T04:43:34.338Z,99572.78
2018-05-10T04:46:01.926Z,99571.59
2018-05-10T04:48:29.420Z,99570.81
2018-05-10T04:50:56.916Z,99573.09
2018-05-10T04:53:24.513Z,99574.95
2018-05-10T04:55:56.424Z,99582.63
2018-05-10T04:58:34.290Z,99581.17
2018-05-10T05:01:01.786Z,99582.87
2018-05-10T05:03:29.516Z,99587.78
2018-05-10T05:05:57.085Z,99587.84
2018-05-10T05:08:25.143Z,99592.34
2018-05-10T05:10:52.733Z,99585.02
2018-05-10T05:13:20.285Z,99587.47
2018-05-10T05:15:47.824Z,99589.52
2018-05-10T05:18:15.321Z,99591.88
2018-05-10T05:20:42.796Z,99596.22
2018-05-10T05:23:10.282Z,99595.55
2018-05-10T05:25:37.786Z,99592.20
2018-05-10T05:28:05.328Z,99594.73
2018-05-10T05:30:32.822Z,99591.33
2018-05-10T05:33:00.332Z,99598.19
2018-05-10T05:35:27.887Z,99595.87
2018-05-10T05:37:55.407Z,99590.75
2018-05-10T05:40:23.044Z,99589.52
2018-05-10T05:42:52.241Z,99587.67
2018-05-10T05:45:20.762Z,99586.81
2018-05-10T05:47:58.725Z,99585.42
2018-05-10T05:50:33.338Z,99587.63
2018-05-10T05:53:00.946Z,99590.22
2018-05-10T05:55:28.467Z,99596.83
2018-05-10T05:57:56.116Z,99598.91
2018-05-10T06:00:23.669Z,99597.79
2018-05-10T06:02:51.161Z,99590.45
2018-05-10T06:05:18.795Z,99594.47
2018-05-10T06:07:46.459Z,99598.75
2018-05-10T06:10:14.014Z,99597.80
2018-05-10T06:12:42.240Z,99601.75
2018-05-10T06:18:08.937Z,99601.25
2018-05-10T06:20:36.618Z,99610.15
2018-05-10T06:23:04.321Z,99599.36
2018-05-10T06:25:35.827Z,99602.09
2018-05-10T06:28:03.851Z,99600.17
2018-05-10T06:30:31.416Z,99599.88
2018-05-10T06:32:58.940Z,99598.46
2018-05-10T06:35:26.513Z,99597.05
2018-05-10T06:37:54.248Z,99595.89
2018-05-10T06:40:21.825Z,99604.80
2018-05-10T06:42:49.570Z,99604.56
2018-05-10T06:45:17.311Z,99612.50
2018-05-10T06:47:44.834Z,99614.10
2018-05-10T06:50:12.470Z,99619.80
2018-05-10T06:52:40.052Z,99626.23
2018-05-10T06:55:07.736Z,99626.97
2018-05-10T06:57:35.248Z,99627.65
2018-05-10T07:00:02.904Z,99626.38
2018-05-10T07:02:30.620Z,99626.91
2018-05-10T07:05:00.135Z,99625.94
2018-05-10T07:07:28.093Z,99630.52
2018-05-10T07:09:58.363Z,99626.02
2018-05-10T07:12:25.584Z,99630.40
2018-05-10T07:14:53.277Z,99628.11
2018-05-10T07:17:20.938Z,99631.04
2018-05-10T07:19:53.692Z,99642.77
2018-05-10T07:22:21.279Z,99642.36
2018-05-10T07:24:48.807Z,99643.47
2018-05-10T07:27:16.337Z,99642.47
2018-05-10T07:29:43.846Z,99643.19
2018-05-10T07:32:11.355Z,99642.86
2018-05-10T07:34:38.896Z,99644.27
2018-05-10T07:37:06.411Z,99644.17
2018-05-10T07:39:33.982Z,99638.36
2018-05-10T07:42:01.801Z,99643.76
2018-05-10T07:44:29.239Z,99644.24
2018-05-10T07:46:56.931Z,99638.90
2018-05-10T07:49:24.562Z,99639.22
2018-05-10T07:51:53.164Z,99636.50
2018-05-10T07:54:20.692Z,99638.09
2018-05-10T07:56:48.180Z,99643.82
2018-05-10T07:59:15.705Z,99640.73
2018-05-10T08:01:43.196Z,99648.05
2018-05-10T08:04:10.703Z,99643.42
2018-05-10T08:06:38.203Z,99641.84
2018-05-10T08:09:05.712Z,99639.50
2018-05-10T08:11:33.279Z,99649.81
2018-05-10T08:14:00.792Z,99652.67
2018-05-10T08:16:28.270Z,99654.84
2018-05-10T08:18:56.037Z,99649.48
2018-05-10T08:21:30.472Z,99651.28
2018-05-10T08:23:58.545Z,99645.80
2018-05-10T08:26:26.048Z,99649.50
2018-05-10T08:28:53.558Z,99654.17
2018-05-10T08:31:21.070Z,99655.60
2018-05-10T08:33:48.566Z,99662.62
2018-05-10T08:36:16.160Z,99663.20
2018-05-10T08:38:43.648Z,99660.78
2018-05-10T08:41:11.140Z,99661.91
2018-05-10T08:43:38.634Z,99657.77
2018-05-10T08:51:59.216Z,99663.47
2018-05-10T08:56:54.748Z,99665.73
2018-05-10T08:59:22.554Z,99668.63
2018-05-10T09:01:50.285Z,99674.42
2018-05-10T09:04:17.870Z,99674.02
2018-05-10T09:06:45.479Z,99675.48
2018-05-10T09:09:13.044Z,99676.11
2018-05-10T09:11:40.639Z,99678.98
2018-05-10T09:14:08.214Z,99680.92
2018-05-10T09:16:35.782Z,99679.09
2018-05-10T09:19:03.376Z,99682.45
2018-05-10T09:21:31.036Z,99678.59
2018-05-10T09:23:58.685Z,99683.02
2018-05-10T09:26:26.373Z,99680.44
2018-05-10T09:28:54.037Z,99687.77
2018-05-10T09:31:21.683Z,99682.30
2018-05-10T09:33:49.259Z,99687.13
2018-05-10T09:36:17.404Z,99685.32
2018-05-10T09:38:44.992Z,99684.45
2018-05-10T09:41:12.553Z,99682.33
2018-05-10T09:43:40.219Z,99684.39
2018-05-10T09:46:08.105Z,99687.25
2018-05-10T09:48:35.683Z,99685.97
2018-05-10T09:51:03.269Z,99686.67
2018-05-10T09:53:30.885Z,99688.66
2018-05-10T09:55:58.484Z,99686.48
2018-05-10T09:58:26.849Z,99688.14
2018-05-10T10:00:54.442Z,99687.47
2018-05-10T10:03:22.016Z,99686.25
2018-05-10T10:05:49.640Z,99689.17
2018-05-10T10:08:17.293Z,99691.39
2018-05-10T10:10:45.004Z,99698.19
2018-05-10T10:13:12.617Z,99700.58
2018-05-10T10:15:40.595Z,99697.39
2018-05-10T10:18:10.151Z,99690.22
2018-05-10T10:20:40.239Z,99690.72
2018-05-10T10:23:07.894Z,99692.31
2018-05-10T10:25:36.772Z,99694.66
2018-05-10T10:28:04.363Z,99695.56
2018-05-10T10:30:31.935Z,99704.30
2018-05-10T10:33:00.423Z,99709.42
2018-05-10T10:35:32.254Z,99707.94
2018-05-10T10:37:59.883Z,99701.92
2018-05-10T10:40:38.285Z,99702.25
2018-05-10T10:43:06.593Z,99700.65
2018-05-10T10:45:38.644Z,99715.39
2018-05-10T10:48:06.222Z,99712.34
2018-05-10T10:50:34.998Z,99702.80
2018-05-10T10:53:15.816Z,99703.45
2018-05-10T10:55:43.771Z,99715.77
2018-05-10T10:58:17.266Z,99730.94
2018-05-10T11:00:45.180Z,99725.94
2018-05-10T11:03:14.375Z,99728.56
2018-05-10T11:05:43.225Z,99722.42
2018-05-10T11:08:12.080Z,99726.80
2018-05-10T11:10:39.697Z,99731.71
2018-05-10T11:13:08.491Z,99738.77
2018-05-10T11:15:36.474Z,99742.25
2018-05-10T11:18:04.152Z,99745.16
2018-05-10T11:20:31.884Z,99765.25
2018-05-10T11:22:59.722Z,99773.47
2018-05-10T11:25:29.361Z,99772.13
2018-05-10T11:27:56.984Z,99770.93
2018-05-10T11:30:26.361Z,99775.27
2018-05-10T11:32:54.166Z,99782.20
2018-05-10T11:35:21.817Z,99786.13
2018-05-10T11:37:50.152Z,99789.31
2018-05-10T11:40:17.755Z,99787.00
2018-05-10T11:42:45.343Z,99791.16
2018-05-10T11:45:12.915Z,99783.70
2018-05-10T11:47:40.521Z,99779.00
2018-05-10T11:50:08.103Z,99769.34
2018-05-10T11:52:35.669Z,99765.84
2018-05-10T11:55:03.684Z,99755.36
2018-05-10T11:57:31.778Z,99759.39
2018-05-10T12:00:01.910Z,99763.55
2018-05-10T12:02:31.593Z,99770.59
2018-05-10T12:05:00.734Z,99772.31
2018-05-10T12:07:29.539Z,99764.44
2018-05-10T12:09:58.136Z,99768.23
2018-05-10T12:14:59.582Z,99786.47
2018-05-10T12:17:27.175Z,99791.12
2018-05-10T12:19:55.144Z,99796.48
2018-05-10T12:22:22.681Z,99812.86
2018-05-10T12:24:50.256Z,99799.24
2018-05-10T12:27:18.176Z,99803.94
2018-05-10T12:29:46.566Z,99795.77
2018-05-10T12:32:14.130Z,99799.84
2018-05-10T12:34:41.708Z,99812.75
2018-05-10T12:37:09.308Z,99812.59
2018-05-10T12:39:37.324Z,99825.23
2018-05-10T12:42:06.187Z,99830.22
2018-05-10T12:44:33.972Z,99835.17
2018-05-10T12:47:02.706Z,99837.78
2018-05-10T12:49:30.305Z,99836.26
2018-05-10T12:51:58.916Z,99822.16
2018-05-10T12:54:27.089Z,99820.67
2018-05-10T12:56:54.969Z,99833.55
2018-05-10T12:59:23.268Z,99848.63
2018-05-10T13:01:50.851Z,99856.00
2018-05-10T13:04:18.417Z,99860.80
2018-05-10T13:06:46.303Z,99863.97
2018-05-10T13:09:14.374Z,99878.42
2018-05-10T13:11:41.981Z,99870.23
2018-05-10T13:14:09.584Z,99876.00
2018-05-10T13:16:37.163Z,99879.84
2018-05-10T13:19:05.321Z,99891.09
2018-05-10T13:21:33.509Z,99891.84
2018-05-10T13:24:01.131Z,99893.97
2018-05-10T13:26:28.740Z,99884.25
2018-05-10T13:28:56.939Z,99877.66
2018-05-10T13:31:24.536Z,99876.05
2018-05-10T13:33:52.120Z,99864.81
2018-05-10T13:36:19.713Z,99866.84
2018-05-10T13:38:47.341Z,99869.80
2018-05-10T13:41:14.930Z,99869.81
2018-05-10T13:46:14.517Z,99866.95
2018-05-10T13:48:42.833Z,99880.85
2018-05-10T13:51:10.427Z,99891.27
2018-05-10T13:53:39.507Z,99903.22
2018-05-10T13:56:07.300Z,99912.14
2018-05-10T13:58:35.589Z,99917.44
2018-05-10T14:01:03.179Z,99915.82
2018-05-10T14:03:31.284Z,99910.66
2018-05-10T14:05:59.555Z,99922.06
2018-05-10T14:08:27.629Z,99922.84
2018-05-10T14:10:56.129Z,99931.47
2018-05-10T14:13:23.706Z,99943.55
2018-05-10T14:15:52.084Z,99959.69
2018-05-10T14:18:19.701Z,99987.71
2018-05-10T14:20:47.266Z,99998.48
2018-05-10T14:23:14.823Z,100010.64
2018-05-10T14:25:43.100Z,100013.93
2018-05-10T14:28:11.520Z,100000.04
2018-05-10T14:30:39.148Z,99970.61
2018-05-10T14:33:06.705Z,99956.34
2018-05-10T14:35:34.297Z,99950.69
2018-05-10T14:38:01.903Z,99948.46
2018-05-10T14:40:30.098Z,99967.00
2018-05-10T14:42:58.573Z,99980.91
2018-05-10T14:45:26.882Z,99994.09
2018-05-10T14:47:54.507Z,100012.25
2018-05-10T14:50:22.077Z,100030.84
2018-05-10T14:52:49.675Z,100052.78
2018-05-10T14:55:17.284Z,100076.07
2018-05-10T14:57:44.985Z,100096.34
2018-05-10T15:00:12.589Z,100107.55
2018-05-10T15:02:40.174Z,100112.59
2018-05-10T15:05:07.885Z,100107.21
2018-05-10T15:07:35.476Z,100110.64
2018-05-10T15:10:03.059Z,100109.56
2018-05-10T15:12:30.643Z,100115.13
2018-05-10T15:14:58.267Z,100127.66
2018-05-10T15:17:25.943Z,100138.80
2018-05-10T15:19:53.664Z,100136.97
2018-05-10T15:22:21.211Z,100150.89
2018-05-10T15:24:48.795Z,100166.23
2018-05-10T15:27:16.456Z,100166.63
2018-05-10T15:29:44.147Z,100177.72
2018-05-10T15:32:11.811Z,100184.05
2018-05-10T15:34:39.416Z,100178.46
2018-05-10T15:37:07.012Z,100173.81
2018-05-10T15:39:34.629Z,100171.76
2018-05-10T15:42:02.219Z,100177.88
2018-05-10T15:44:29.903Z,100179.02
2018-05-10T15:46:57.564Z,100189.53
2018-05-10T15:49:25.138Z,100186.29
2018-05-10T15:51:52.813Z,100195.97
2018-05-10T15:54:20.420Z,100195.64
2018-05-10T15:56:48.107Z,100196.61
2018-05-10T15:59:15.707Z,100198.44
2018-05-10T16:01:44.361Z,100200.48
2018-05-10T16:04:12.525Z,100202.13
2018-05-10T16:06:40.178Z,100219.22
2018-05-10T16:09:07.784Z,100224.78
2018-05-10T16:11:35.348Z,100237.91
2018-05-10T16:14:02.934Z,100244.88
2018-05-10T16:16:30.633Z,100240.53
2018-05-10T16:18:58.293Z,100247.67
2018-05-10T16:21:25.882Z,100259.19
2018-05-10T16:23:53.512Z,100261.60
2018-05-10T16:26:21.172Z,100272.60
2018-05-10T16:28:48.737Z,100274.80
2018-05-10T16:31:16.317Z,100282.31
2018-05-10T16:33:43.885Z,100288.00
2018-05-10T16:36:11.511Z,100288.67
2018-05-10T16:38:39.141Z,100283.20
2018-05-10T16:41:07.618Z,100281.27
2018-05-10T16:43:35.214Z,100289.88
2018-05-10T16:46:02.905Z,100296.03
2018-05-10T16:48:30.697Z,100298.55
2018-05-10T16:50:58.287Z,100312.76
2018-05-10T16:53:25.948Z,100308.88
2018-05-10T16:55:53.481Z,100322.27
2018-05-10T16:58:21.066Z,100322.07
2018-05-10T17:00:48.692Z,100333.33
2018-05-10T17:03:16.313Z,100338.23
2018-05-10T17:05:43.920Z,100337.67
2018-05-10T17:08:11.713Z,100345.36
2018-05-10T17:10:39.305Z,100344.78
2018-05-10T17:13:06.889Z,100350.89
2018-05-10T17:15:34.502Z,100355.30
2018-05-10T17:18:02.126Z,100370.77
2018-05-10T17:20:29.700Z,100370.56
2018-05-10T17:22:57.330Z,100377.00
2018-05-10T17:25:24.987Z,100373.81
2018-05-10T17:27:52.650Z,100379.80
2018-05-10T17:30:20.412Z,100376.91
2018-05-10T17:32:48.072Z,100374.59
2018-05-10T17:35:15.656Z,100380.91
2018-05-10T17:37:43.269Z,100382.28
2018-05-10T17:40:10.855Z,100384.80
2018-05-10T17:42:38.527Z,100384.15
2018-05-10T17:45:06.098Z,100388.11
2018-05-10T17:47:33.699Z,100392.87
2018-05-10T17:50:01.486Z,100401.97
2018-05-10T17:52:29.162Z,100405.78
2018-05-10T17:54:56.745Z,100408.70
2018-05-10T17:57:24.371Z,100416.30
2018-05-10T17:59:52.041Z,100422.56
2018-05-10T18:02:19.698Z,100432.98
2018-05-10T18:04:47.263Z,100434.96
2018-05-10T18:07:14.952Z,100442.74
2018-05-10T18:09:42.772Z,100444.16
2018-05-10T18:12:10.337Z,100451.86
2018-05-10T18:14:37.913Z,100458.16
2018-05-10T18:17:05.555Z,100460.47
2018-05-10T18:19:33.119Z,100472.27
2018-05-10T18:22:00.731Z,100477.41
2018-05-10T18:24:28.316Z,100466.13
2018-05-10T18:26:55.864Z,100477.73
2018-05-10T18:29:23.495Z,100479.62
2018-05-10T18:31:51.111Z,100480.66
2018-05-10T18:34:18.714Z,100487.08
2018-05-10T18:36:46.293Z,100485.38
2018-05-10T18:39:13.853Z,100495.90
2018-05-10T18:41:41.565Z,100506.95
2018-05-10T18:44:09.171Z,100516.19
2018-05-10T18:46:36.801Z,100517.81
2018-05-10T18:49:04.394Z,100528.83
2018-05-10T18:51:31.952Z,100532.16
2018-05-10T18:53:59.511Z,100542.52
2018-05-10T18:56:27.100Z,100550.28
2018-05-10T18:58:54.760Z,100551.84
2018-05-10T19:01:22.382Z,100558.59
2018-05-10T19:03:50.060Z,100560.67
2018-05-10T19:06:17.644Z,100560.41
2018-05-10T19:08:45.300Z,100558.64
2018-05-10T19:11:12.939Z,100559.09
2018-05-10T19:13:40.518Z,100555.73
2018-05-10T19:16:08.079Z,100555.61
2018-05-10T19:18:35.685Z,100569.59
2018-05-10T19:21:04.115Z,100572.44
2018-05-10T19:23:31.754Z,100578.55
2018-05-10T19:25:59.438Z,100578.09
2018-05-10T19:28:27.033Z,100580.24
2018-05-10T19:30:54.671Z,100581.60
2018-05-10T19:33:22.224Z,100591.37
2018-05-10T19:35:49.914Z,100587.02
2018-05-10T19:38:17.470Z,100593.25
2018-05-10T19:40:45.727Z,100599.16
2018-05-10T19:43:13.516Z,100605.03
2018-05-10T19:45:41.132Z,100606.05
2018-05-10T19:48:08.916Z,100608.73
2018-05-10T19:50:36.568Z,100618.96
2018-05-10T19:53:04.940Z,100621.57
2018-05-10T19:55:33.315Z,100618.92
2018-05-10T19:58:00.901Z,100629.08
2018-05-10T20:00:28.536Z,100633.64
2018-05-10T20:02:56.133Z,100639.45
2018-05-10T20:05:23.760Z,100638.64
2018-05-10T20:07:51.928Z,100644.17
2018-05-10T20:10:19.515Z,100651.23
2018-05-10T20:12:47.720Z,100652.62
2018-05-10T20:15:15.830Z,100651.27
2018-05-10T20:17:43.389Z,100649.62
2018-05-10T20:20:10.967Z,100650.68
2018-05-10T20:22:38.528Z,100651.48
2018-05-10T20:25:06.156Z,100658.59
2018-05-10T20:27:33.725Z,100670.17
2018-05-10T20:30:01.298Z,100679.95
2018-05-10T20:32:28.994Z,100686.34
2018-05-10T20:34:56.728Z,100686.62
2018-05-10T20:37:24.341Z,100691.39
2018-05-10T20:39:52.140Z,100687.05
2018-05-10T20:42:19.730Z,100694.86
2018-05-10T20:44:47.447Z,100703.89
2018-05-10T20:47:15.035Z,100706.94
2018-05-10T20:49:42.690Z,100710.14
2018-05-10T20:52:10.346Z,100716.66
2018-05-10T20:54:38.007Z,100714.92
2018-05-10T20:57:05.680Z,100723.09
2018-05-10T20:59:33.470Z,100719.97
2018-05-10T21:02:01.108Z,100717.09
2018-05-10T21:04:28.760Z,100702.56
2018-05-10T21:06:56.425Z,100710.73
2018-05-10T21:09:24.078Z,100715.78
2018-05-10T21:11:51.658Z,100717.43
2018-05-10T21:14:19.354Z,100721.34
2018-05-10T21:16:46.954Z,100721.97
2018-05-10T21:19:14.541Z,100731.47
2018-05-10T21:21:42.091Z,100725.48
2018-05-10T21:24:09.657Z,100728.84
2018-05-10T21:26:37.250Z,100733.61
2018-05-10T21:29:04.807Z,100730.78
2018-05-10T21:31:32.412Z,100733.59
2018-05-10T21:34:00.050Z,100735.63
2018-05-10T21:36:27.637Z,100743.59
2018-05-10T21:38:55.299Z,100750.52
2018-05-10T21:41:22.861Z,100759.11
2018-05-10T21:43:50.465Z,100761.71
2018-05-10T21:46:18.170Z,100764.17
2018-05-10T21:48:45.789Z,100768.13
2018-05-10T21:51:13.351Z,100765.48
2018-05-10T21:53:40.980Z,100761.79
2018-05-10T21:56:08.676Z,100761.10
2018-05-10T21:58:36.316Z,100762.67
2018-05-10T22:01:04.016Z,100766.83
2018-05-10T22:03:31.588Z,100774.27
2018-05-10T22:05:59.156Z,100772.70
2018-05-10T22:08:26.722Z,100774.94
2018-05-10T22:10:54.378Z,100782.91
2018-05-10T22:13:22.029Z,100776.69
2018-05-10T22:15:49.620Z,100774.81
2018-05-10T22:18:17.202Z,100778.29
2018-05-10T22:20:44.762Z,100779.70
2018-05-10T22:23:12.357Z,100776.29
2018-05-10T22:25:40.042Z,100774.80
2018-05-10T22:28:07.688Z,100771.33
2018-05-10T22:30:35.281Z,100775.27
2018-05-10T22:33:02.880Z,100774.03
2018-05-10T22:35:30.509Z,100772.54
2018-05-10T22:37:58.077Z,100778.56
2018-05-10T22:40:25.686Z,100784.49
2018-05-10T22:42:53.357Z,100780.14
2018-05-10T22:45:21.002Z,100791.23
2018-05-10T22:47:48.604Z,100794.20
2018-05-10T22:50:16.249Z,100797.68
2018-05-10T22:52:43.876Z,100805.08
2018-05-10T22:55:11.468Z,100805.56
2018-05-10T22:57:39.077Z,100810.70
2018-05-10T23:00:06.623Z,100812.84
2018-05-10T23:02:34.211Z,100823.95
2018-05-10T23:05:01.751Z,100820.89
2018-05-10T23:07:29.384Z,100826.14
2018-05-10T23:09:57.016Z,100819.05
2018-05-10T23:12:24.569Z,100820.72
2018-05-10T23:14:52.176Z,100815.31
2018-05-10T23:17:19.780Z,100820.82
2018-05-10T23:19:47.444Z,100826.39
2018-05-10T23:22:15.063Z,100829.37
2018-05-10T23:24:42.658Z,100834.05
2018-05-10T23:27:10.288Z,100839.12
2018-05-10T23:29:37.952Z,100837.50
2018-05-10T23:32:05.526Z,100841.23
2018-05-10T23:34:33.176Z,100853.59
2018-05-10T23:37:00.750Z,100853.09
2018-05-10T23:39:28.348Z,100853.95
2018-05-10T23:41:55.958Z,100852.25
2018-05-10T23:44:23.548Z,100852.19
2018-05-10T23:46:51.180Z,100853.33
2018-05-10T23:49:18.751Z,100861.06
2018-05-10T23:51:46.337Z,100862.08
2018-05-10T23:54:13.961Z,100867.44
2018-05-10T23:56:41.528Z,100869.17
2018-05-10T23:59:09.139Z,100870.77
